sensor_id;sensor_type;location;lat;lon;timestamp;P1;durP1;ratioP1;P2;durP2;ratioP2
61702;SDS011;47622;47.726;3.298;2023-07-16T00:01:27;6.15;;;1.98;;
61702;SDS011;47622;47.726;3.298;2023-07-16T00:03:53;8.40;;;2.25;;
61702;SDS011;47622;47.726;3.298;2023-07-16T00:06:18;4.00;;;1.90;;
61702;SDS011;47622;47.726;3.298;2023-07-16T00:08:44;6.95;;;1.92;;
61702;SDS011;47622;47.726;3.298;2023-07-16T00:11:10;9.57;;;2.30;;
61702;SDS011;47622;47.726;3.298;2023-07-16T00:13:35;10.20;;;2.00;;
61702;SDS011;47622;47.726;3.298;2023-07-16T00:16:01;7.38;;;2.30;;
61702;SDS011;47622;47.726;3.298;2023-07-16T00:18:26;9.50;;;2.28;;
61702;SDS011;47622;47.726;3.298;2023-07-16T00:20:52;9.57;;;2.10;;
61702;SDS011;47622;47.726;3.298;2023-07-16T00:23:17;9.70;;;2.15;;
61702;SDS011;47622;47.726;3.298;2023-07-16T00:25:43;5.82;;;1.90;;
61702;SDS011;47622;47.726;3.298;2023-07-16T00:28:08;5.88;;;1.90;;
61702;SDS011;47622;47.726;3.298;2023-07-16T00:30:37;9.15;;;2.72;;
61702;SDS011;47622;47.726;3.298;2023-07-16T00:33:02;9.57;;;2.65;;
61702;SDS011;47622;47.726;3.298;2023-07-16T00:35:28;8.00;;;1.80;;
61702;SDS011;47622;47.726;3.298;2023-07-16T00:37:53;9.13;;;2.38;;
61702;SDS011;47622;47.726;3.298;2023-07-16T00:40:19;5.72;;;1.90;;
61702;SDS011;47622;47.726;3.298;2023-07-16T00:42:44;6.07;;;1.90;;
61702;SDS011;47622;47.726;3.298;2023-07-16T00:45:13;10.95;;;2.30;;
61702;SDS011;47622;47.726;3.298;2023-07-16T00:47:41;6.95;;;2.28;;
61702;SDS011;47622;47.726;3.298;2023-07-16T00:50:10;9.00;;;2.28;;
61702;SDS011;47622;47.726;3.298;2023-07-16T00:52:37;8.18;;;1.98;;
61702;SDS011;47622;47.726;3.298;2023-07-16T00:55:03;10.57;;;2.55;;
61702;SDS011;47622;47.726;3.298;2023-07-16T00:57:30;8.18;;;2.30;;
61702;SDS011;47622;47.726;3.298;2023-07-16T00:59:56;7.53;;;1.83;;
61702;SDS011;47622;47.726;3.298;2023-07-16T01:02:22;9.63;;;2.22;;
61702;SDS011;47622;47.726;3.298;2023-07-16T01:04:47;7.90;;;2.33;;
61702;SDS011;47622;47.726;3.298;2023-07-16T01:07:13;6.88;;;1.90;;
61702;SDS011;47622;47.726;3.298;2023-07-16T01:09:41;6.60;;;2.40;;
61702;SDS011;47622;47.726;3.298;2023-07-16T01:12:08;7.70;;;2.13;;
61702;SDS011;47622;47.726;3.298;2023-07-16T01:14:35;6.90;;;2.00;;
61702;SDS011;47622;47.726;3.298;2023-07-16T01:17:05;8.60;;;2.28;;
61702;SDS011;47622;47.726;3.298;2023-07-16T01:19:32;9.20;;;2.67;;
61702;SDS011;47622;47.726;3.298;2023-07-16T01:30:33;7.03;;;2.30;;
61702;SDS011;47622;47.726;3.298;2023-07-16T01:33:02;14.13;;;2.45;;
61702;SDS011;47622;47.726;3.298;2023-07-16T01:35:29;9.00;;;2.63;;
61702;SDS011;47622;47.726;3.298;2023-07-16T01:37:55;10.68;;;2.58;;
61702;SDS011;47622;47.726;3.298;2023-07-16T01:40:20;13.77;;;2.72;;
61702;SDS011;47622;47.726;3.298;2023-07-16T01:42:46;11.32;;;2.42;;
61702;SDS011;47622;47.726;3.298;2023-07-16T01:45:11;8.13;;;2.67;;
61702;SDS011;47622;47.726;3.298;2023-07-16T01:47:50;7.28;;;2.50;;
61702;SDS011;47622;47.726;3.298;2023-07-16T01:50:41;11.55;;;2.70;;
61702;SDS011;47622;47.726;3.298;2023-07-16T01:53:07;9.63;;;2.85;;
61702;SDS011;47622;47.726;3.298;2023-07-16T01:55:33;8.65;;;2.67;;
61702;SDS011;47622;47.726;3.298;2023-07-16T01:57:58;11.32;;;2.78;;
61702;SDS011;47622;47.726;3.298;2023-07-16T02:00:24;9.05;;;2.55;;
61702;SDS011;47622;47.726;3.298;2023-07-16T02:02:49;6.75;;;2.45;;
61702;SDS011;47622;47.726;3.298;2023-07-16T02:05:15;7.28;;;2.55;;
61702;SDS011;47622;47.726;3.298;2023-07-16T02:07:41;9.25;;;2.58;;
61702;SDS011;47622;47.726;3.298;2023-07-16T02:10:08;7.75;;;2.55;;
61702;SDS011;47622;47.726;3.298;2023-07-16T02:12:35;10.30;;;2.80;;
61702;SDS011;47622;47.726;3.298;2023-07-16T02:15:00;8.88;;;3.10;;
61702;SDS011;47622;47.726;3.298;2023-07-16T02:17:26;7.57;;;2.33;;
61702;SDS011;47622;47.726;3.298;2023-07-16T02:19:51;6.07;;;2.42;;
61702;SDS011;47622;47.726;3.298;2023-07-16T02:22:17;9.27;;;2.50;;
61702;SDS011;47622;47.726;3.298;2023-07-16T02:24:42;6.28;;;2.60;;
61702;SDS011;47622;47.726;3.298;2023-07-16T02:27:08;7.22;;;2.28;;
61702;SDS011;47622;47.726;3.298;2023-07-16T02:29:33;9.13;;;2.20;;
61702;SDS011;47622;47.726;3.298;2023-07-16T02:31:59;6.80;;;2.40;;
61702;SDS011;47622;47.726;3.298;2023-07-16T02:34:25;5.55;;;2.58;;
61702;SDS011;47622;47.726;3.298;2023-07-16T02:36:50;6.53;;;2.80;;
61702;SDS011;47622;47.726;3.298;2023-07-16T02:39:16;7.90;;;2.40;;
61702;SDS011;47622;47.726;3.298;2023-07-16T02:41:41;8.57;;;2.63;;
61702;SDS011;47622;47.726;3.298;2023-07-16T02:44:07;7.10;;;2.30;;
61702;SDS011;47622;47.726;3.298;2023-07-16T02:46:34;8.35;;;2.50;;
61702;SDS011;47622;47.726;3.298;2023-07-16T02:49:00;6.72;;;2.40;;
61702;SDS011;47622;47.726;3.298;2023-07-16T02:51:26;6.63;;;2.50;;
61702;SDS011;47622;47.726;3.298;2023-07-16T02:53:52;10.52;;;2.90;;
61702;SDS011;47622;47.726;3.298;2023-07-16T02:56:17;8.02;;;2.47;;
61702;SDS011;47622;47.726;3.298;2023-07-16T02:58:43;7.10;;;2.33;;
61702;SDS011;47622;47.726;3.298;2023-07-16T03:01:09;6.75;;;2.40;;
61702;SDS011;47622;47.726;3.298;2023-07-16T03:03:34;7.43;;;2.47;;
61702;SDS011;47622;47.726;3.298;2023-07-16T03:06:00;9.00;;;2.70;;
61702;SDS011;47622;47.726;3.298;2023-07-16T03:08:25;6.05;;;2.40;;
61702;SDS011;47622;47.726;3.298;2023-07-16T03:10:55;7.28;;;2.65;;
61702;SDS011;47622;47.726;3.298;2023-07-16T03:13:21;10.20;;;2.50;;
61702;SDS011;47622;47.726;3.298;2023-07-16T03:15:47;9.55;;;3.00;;
61702;SDS011;47622;47.726;3.298;2023-07-16T03:18:12;7.40;;;2.95;;
61702;SDS011;47622;47.726;3.298;2023-07-16T03:20:38;7.63;;;2.45;;
61702;SDS011;47622;47.726;3.298;2023-07-16T03:23:03;9.65;;;2.67;;
61702;SDS011;47622;47.726;3.298;2023-07-16T03:25:29;5.00;;;2.30;;
61702;SDS011;47622;47.726;3.298;2023-07-16T03:27:55;9.88;;;2.58;;
61702;SDS011;47622;47.726;3.298;2023-07-16T03:30:20;9.82;;;2.90;;
61702;SDS011;47622;47.726;3.298;2023-07-16T03:32:46;4.53;;;2.10;;
61702;SDS011;47622;47.726;3.298;2023-07-16T03:35:11;6.85;;;2.45;;
61702;SDS011;47622;47.726;3.298;2023-07-16T03:37:37;7.60;;;2.33;;
61702;SDS011;47622;47.726;3.298;2023-07-16T03:40:17;8.65;;;2.72;;
61702;SDS011;47622;47.726;3.298;2023-07-16T03:42:44;4.55;;;2.10;;
61702;SDS011;47622;47.726;3.298;2023-07-16T03:45:10;9.70;;;3.15;;
61702;SDS011;47622;47.726;3.298;2023-07-16T03:47:36;9.77;;;3.08;;
61702;SDS011;47622;47.726;3.298;2023-07-16T03:50:02;10.77;;;2.70;;
61702;SDS011;47622;47.726;3.298;2023-07-16T03:52:28;7.95;;;2.33;;
61702;SDS011;47622;47.726;3.298;2023-07-16T03:54:54;8.63;;;2.60;;
61702;SDS011;47622;47.726;3.298;2023-07-16T03:57:20;6.80;;;2.60;;
61702;SDS011;47622;47.726;3.298;2023-07-16T03:59:45;10.00;;;2.97;;
61702;SDS011;47622;47.726;3.298;2023-07-16T04:02:11;6.75;;;2.35;;
61702;SDS011;47622;47.726;3.298;2023-07-16T04:04:36;10.65;;;2.70;;
61702;SDS011;47622;47.726;3.298;2023-07-16T04:07:03;8.02;;;2.40;;
61702;SDS011;47622;47.726;3.298;2023-07-16T04:09:29;8.93;;;2.70;;
61702;SDS011;47622;47.726;3.298;2023-07-16T04:11:54;9.30;;;3.00;;
61702;SDS011;47622;47.726;3.298;2023-07-16T04:14:20;10.10;;;2.60;;
61702;SDS011;47622;47.726;3.298;2023-07-16T04:16:45;8.45;;;2.35;;
61702;SDS011;47622;47.726;3.298;2023-07-16T04:19:11;6.70;;;2.60;;
61702;SDS011;47622;47.726;3.298;2023-07-16T04:21:37;9.35;;;2.58;;
61702;SDS011;47622;47.726;3.298;2023-07-16T04:24:04;10.15;;;2.22;;
61702;SDS011;47622;47.726;3.298;2023-07-16T04:26:30;10.77;;;2.35;;
61702;SDS011;47622;47.726;3.298;2023-07-16T04:28:56;7.53;;;2.63;;
61702;SDS011;47622;47.726;3.298;2023-07-16T04:31:23;10.68;;;2.55;;
61702;SDS011;47622;47.726;3.298;2023-07-16T04:33:49;7.00;;;2.40;;
61702;SDS011;47622;47.726;3.298;2023-07-16T04:36:16;7.35;;;2.78;;
61702;SDS011;47622;47.726;3.298;2023-07-16T04:38:42;6.65;;;2.60;;
61702;SDS011;47622;47.726;3.298;2023-07-16T04:41:07;7.13;;;2.38;;
61702;SDS011;47622;47.726;3.298;2023-07-16T04:43:33;10.25;;;2.92;;
61702;SDS011;47622;47.726;3.298;2023-07-16T04:45:58;6.63;;;2.42;;
61702;SDS011;47622;47.726;3.298;2023-07-16T04:48:26;7.60;;;2.60;;
61702;SDS011;47622;47.726;3.298;2023-07-16T04:50:52;7.40;;;2.10;;
61702;SDS011;47622;47.726;3.298;2023-07-16T04:53:18;8.75;;;2.88;;
61702;SDS011;47622;47.726;3.298;2023-07-16T04:55:43;10.88;;;2.70;;
61702;SDS011;47622;47.726;3.298;2023-07-16T04:58:10;7.68;;;2.35;;
61702;SDS011;47622;47.726;3.298;2023-07-16T05:00:37;5.95;;;2.10;;
61702;SDS011;47622;47.726;3.298;2023-07-16T05:03:03;9.40;;;2.45;;
61702;SDS011;47622;47.726;3.298;2023-07-16T05:05:28;6.90;;;2.50;;
61702;SDS011;47622;47.726;3.298;2023-07-16T05:07:54;5.90;;;2.08;;
61702;SDS011;47622;47.726;3.298;2023-07-16T05:10:19;7.35;;;2.70;;
61702;SDS011;47622;47.726;3.298;2023-07-16T05:12:45;8.05;;;2.55;;
61702;SDS011;47622;47.726;3.298;2023-07-16T05:15:10;9.95;;;2.60;;
61702;SDS011;47622;47.726;3.298;2023-07-16T05:17:36;10.95;;;2.90;;
61702;SDS011;47622;47.726;3.298;2023-07-16T05:20:02;6.07;;;2.33;;
61702;SDS011;47622;47.726;3.298;2023-07-16T05:22:29;8.60;;;2.60;;
61702;SDS011;47622;47.726;3.298;2023-07-16T05:24:55;7.60;;;3.08;;
61702;SDS011;47622;47.726;3.298;2023-07-16T05:27:21;6.38;;;2.72;;
61702;SDS011;47622;47.726;3.298;2023-07-16T05:29:46;8.15;;;2.50;;
61702;SDS011;47622;47.726;3.298;2023-07-16T05:32:13;8.30;;;3.25;;
61702;SDS011;47622;47.726;3.298;2023-07-16T05:34:39;11.80;;;2.70;;
61702;SDS011;47622;47.726;3.298;2023-07-16T05:37:04;11.23;;;2.60;;
61702;SDS011;47622;47.726;3.298;2023-07-16T05:39:30;7.38;;;2.47;;
61702;SDS011;47622;47.726;3.298;2023-07-16T05:41:57;6.18;;;2.15;;
61702;SDS011;47622;47.726;3.298;2023-07-16T05:44:22;12.10;;;2.90;;
61702;SDS011;47622;47.726;3.298;2023-07-16T05:46:48;7.18;;;2.17;;
61702;SDS011;47622;47.726;3.298;2023-07-16T05:49:14;7.78;;;2.55;;
61702;SDS011;47622;47.726;3.298;2023-07-16T05:51:39;8.60;;;2.47;;
61702;SDS011;47622;47.726;3.298;2023-07-16T05:54:05;6.85;;;2.22;;
61702;SDS011;47622;47.726;3.298;2023-07-16T05:56:31;6.70;;;2.83;;
61702;SDS011;47622;47.726;3.298;2023-07-16T05:58:57;6.80;;;2.60;;
61702;SDS011;47622;47.726;3.298;2023-07-16T06:01:22;8.15;;;2.72;;
61702;SDS011;47622;47.726;3.298;2023-07-16T06:03:48;8.43;;;2.28;;
61702;SDS011;47622;47.726;3.298;2023-07-16T06:06:14;7.95;;;2.72;;
61702;SDS011;47622;47.726;3.298;2023-07-16T06:08:39;9.68;;;2.67;;
61702;SDS011;47622;47.726;3.298;2023-07-16T06:11:05;9.15;;;2.70;;
61702;SDS011;47622;47.726;3.298;2023-07-16T06:13:30;11.43;;;3.08;;
61702;SDS011;47622;47.726;3.298;2023-07-16T06:15:56;10.02;;;3.22;;
61702;SDS011;47622;47.726;3.298;2023-07-16T06:18:22;11.27;;;3.13;;
61702;SDS011;47622;47.726;3.298;2023-07-16T06:20:47;7.32;;;2.70;;
61702;SDS011;47622;47.726;3.298;2023-07-16T06:23:14;11.85;;;2.90;;
61702;SDS011;47622;47.726;3.298;2023-07-16T06:25:41;15.90;;;3.42;;
61702;SDS011;47622;47.726;3.298;2023-07-16T06:28:12;11.20;;;2.97;;
61702;SDS011;47622;47.726;3.298;2023-07-16T06:30:39;11.15;;;3.03;;
61702;SDS011;47622;47.726;3.298;2023-07-16T06:33:04;11.43;;;3.05;;
61702;SDS011;47622;47.726;3.298;2023-07-16T06:35:30;8.32;;;2.83;;
61702;SDS011;47622;47.726;3.298;2023-07-16T06:37:56;10.05;;;3.05;;
61702;SDS011;47622;47.726;3.298;2023-07-16T06:40:21;13.30;;;3.33;;
61702;SDS011;47622;47.726;3.298;2023-07-16T06:42:47;10.57;;;2.90;;
61702;SDS011;47622;47.726;3.298;2023-07-16T06:45:12;12.30;;;2.53;;
61702;SDS011;47622;47.726;3.298;2023-07-16T06:47:38;9.65;;;2.90;;
61702;SDS011;47622;47.726;3.298;2023-07-16T06:50:04;9.80;;;4.07;;
61702;SDS011;47622;47.726;3.298;2023-07-16T06:52:30;7.97;;;3.10;;
61702;SDS011;47622;47.726;3.298;2023-07-16T06:54:56;7.22;;;3.08;;
61702;SDS011;47622;47.726;3.298;2023-07-16T06:57:22;12.38;;;3.67;;
61702;SDS011;47622;47.726;3.298;2023-07-16T06:59:50;9.90;;;3.75;;
61702;SDS011;47622;47.726;3.298;2023-07-16T07:02:16;11.65;;;3.50;;
61702;SDS011;47622;47.726;3.298;2023-07-16T07:04:42;8.90;;;3.63;;
61702;SDS011;47622;47.726;3.298;2023-07-16T07:07:08;10.32;;;3.95;;
61702;SDS011;47622;47.726;3.298;2023-07-16T07:09:34;8.15;;;3.83;;
61702;SDS011;47622;47.726;3.298;2023-07-16T07:11:59;12.45;;;3.88;;
61702;SDS011;47622;47.726;3.298;2023-07-16T07:14:25;9.63;;;3.83;;
61702;SDS011;47622;47.726;3.298;2023-07-16T07:16:51;10.80;;;4.15;;
61702;SDS011;47622;47.726;3.298;2023-07-16T07:19:16;11.77;;;3.85;;
61702;SDS011;47622;47.726;3.298;2023-07-16T07:21:42;9.93;;;4.18;;
61702;SDS011;47622;47.726;3.298;2023-07-16T07:24:08;7.70;;;3.53;;
61702;SDS011;47622;47.726;3.298;2023-07-16T07:26:34;10.43;;;3.22;;
61702;SDS011;47622;47.726;3.298;2023-07-16T07:29:00;9.73;;;3.33;;
61702;SDS011;47622;47.726;3.298;2023-07-16T07:31:26;9.38;;;3.67;;
61702;SDS011;47622;47.726;3.298;2023-07-16T07:33:51;12.23;;;3.90;;
61702;SDS011;47622;47.726;3.298;2023-07-16T07:36:18;10.93;;;3.63;;
61702;SDS011;47622;47.726;3.298;2023-07-16T07:38:44;9.07;;;3.85;;
61702;SDS011;47622;47.726;3.298;2023-07-16T07:41:10;8.35;;;3.63;;
61702;SDS011;47622;47.726;3.298;2023-07-16T07:43:36;8.50;;;3.63;;
61702;SDS011;47622;47.726;3.298;2023-07-16T07:46:01;9.85;;;3.58;;
61702;SDS011;47622;47.726;3.298;2023-07-16T07:48:28;10.50;;;3.40;;
61702;SDS011;47622;47.726;3.298;2023-07-16T07:50:54;11.25;;;3.88;;
61702;SDS011;47622;47.726;3.298;2023-07-16T07:53:19;9.45;;;3.40;;
61702;SDS011;47622;47.726;3.298;2023-07-16T07:55:45;10.82;;;3.30;;
61702;SDS011;47622;47.726;3.298;2023-07-16T07:58:11;8.73;;;3.65;;
61702;SDS011;47622;47.726;3.298;2023-07-16T08:00:37;11.07;;;3.80;;
61702;SDS011;47622;47.726;3.298;2023-07-16T08:03:03;9.93;;;3.40;;
61702;SDS011;47622;47.726;3.298;2023-07-16T08:05:29;9.55;;;3.63;;
61702;SDS011;47622;47.726;3.298;2023-07-16T08:07:55;11.30;;;3.80;;
61702;SDS011;47622;47.726;3.298;2023-07-16T08:10:22;10.70;;;3.45;;
61702;SDS011;47622;47.726;3.298;2023-07-16T08:12:48;9.40;;;3.92;;
61702;SDS011;47622;47.726;3.298;2023-07-16T08:15:15;10.43;;;3.80;;
61702;SDS011;47622;47.726;3.298;2023-07-16T08:17:43;7.63;;;3.28;;
61702;SDS011;47622;47.726;3.298;2023-07-16T08:20:10;11.02;;;4.00;;
61702;SDS011;47622;47.726;3.298;2023-07-16T08:22:36;10.55;;;3.55;;
61702;SDS011;47622;47.726;3.298;2023-07-16T08:25:03;9.02;;;3.67;;
61702;SDS011;47622;47.726;3.298;2023-07-16T08:27:29;6.63;;;3.45;;
61702;SDS011;47622;47.726;3.298;2023-07-16T08:29:55;11.32;;;3.97;;
61702;SDS011;47622;47.726;3.298;2023-07-16T08:32:22;9.65;;;3.72;;
61702;SDS011;47622;47.726;3.298;2023-07-16T08:34:47;11.82;;;3.92;;
61702;SDS011;47622;47.726;3.298;2023-07-16T08:37:13;9.95;;;3.83;;
61702;SDS011;47622;47.726;3.298;2023-07-16T08:39:39;10.07;;;4.70;;
61702;SDS011;47622;47.726;3.298;2023-07-16T08:42:05;9.98;;;4.47;;
61702;SDS011;47622;47.726;3.298;2023-07-16T08:44:34;8.50;;;4.28;;
61702;SDS011;47622;47.726;3.298;2023-07-16T08:47:00;11.27;;;5.05;;
61702;SDS011;47622;47.726;3.298;2023-07-16T08:49:26;10.90;;;5.00;;
61702;SDS011;47622;47.726;3.298;2023-07-16T08:51:55;11.50;;;5.10;;
61702;SDS011;47622;47.726;3.298;2023-07-16T08:54:21;8.73;;;4.95;;
61702;SDS011;47622;47.726;3.298;2023-07-16T08:56:47;8.27;;;4.30;;
61702;SDS011;47622;47.726;3.298;2023-07-16T08:59:13;7.00;;;4.80;;
61702;SDS011;47622;47.726;3.298;2023-07-16T09:01:40;10.25;;;4.85;;
61702;SDS011;47622;47.726;3.298;2023-07-16T09:04:05;9.73;;;4.43;;
61702;SDS011;47622;47.726;3.298;2023-07-16T09:06:31;11.63;;;5.20;;
61702;SDS011;47622;47.726;3.298;2023-07-16T09:08:57;12.55;;;4.80;;
61702;SDS011;47622;47.726;3.298;2023-07-16T09:11:23;9.60;;;4.72;;
61702;SDS011;47622;47.726;3.298;2023-07-16T09:13:49;7.57;;;4.88;;
61702;SDS011;47622;47.726;3.298;2023-07-16T09:16:15;16.27;;;4.82;;
61702;SDS011;47622;47.726;3.298;2023-07-16T09:18:43;10.50;;;4.70;;
61702;SDS011;47622;47.726;3.298;2023-07-16T09:21:10;8.25;;;4.30;;
61702;SDS011;47622;47.726;3.298;2023-07-16T09:23:36;14.68;;;5.95;;
61702;SDS011;47622;47.726;3.298;2023-07-16T09:26:02;9.07;;;5.25;;
61702;SDS011;47622;47.726;3.298;2023-07-16T09:28:31;12.82;;;5.85;;
61702;SDS011;47622;47.726;3.298;2023-07-16T09:31:03;9.13;;;5.68;;
61702;SDS011;47622;47.726;3.298;2023-07-16T09:33:31;10.52;;;4.85;;
61702;SDS011;47622;47.726;3.298;2023-07-16T09:35:57;8.18;;;4.68;;
61702;SDS011;47622;47.726;3.298;2023-07-16T09:38:23;11.35;;;5.40;;
61702;SDS011;47622;47.726;3.298;2023-07-16T09:40:51;9.20;;;4.85;;
61702;SDS011;47622;47.726;3.298;2023-07-16T09:43:18;10.38;;;5.20;;
61702;SDS011;47622;47.726;3.298;2023-07-16T09:45:43;11.30;;;5.38;;
61702;SDS011;47622;47.726;3.298;2023-07-16T09:48:09;19.45;;;6.28;;
61702;SDS011;47622;47.726;3.298;2023-07-16T09:50:36;8.88;;;5.30;;
61702;SDS011;47622;47.726;3.298;2023-07-16T09:53:04;14.45;;;5.75;;
61702;SDS011;47622;47.726;3.298;2023-07-16T09:55:33;11.60;;;5.07;;
61702;SDS011;47622;47.726;3.298;2023-07-16T09:58:02;10.40;;;5.30;;
61702;SDS011;47622;47.726;3.298;2023-07-16T10:00:34;12.07;;;5.10;;
61702;SDS011;47622;47.726;3.298;2023-07-16T10:03:02;9.73;;;4.85;;
61702;SDS011;47622;47.726;3.298;2023-07-16T10:05:28;11.23;;;5.10;;
61702;SDS011;47622;47.726;3.298;2023-07-16T10:07:54;13.02;;;6.18;;
61702;SDS011;47622;47.726;3.298;2023-07-16T10:10:40;7.93;;;5.20;;
61702;SDS011;47622;47.726;3.298;2023-07-16T10:13:08;10.80;;;4.80;;
61702;SDS011;47622;47.726;3.298;2023-07-16T10:15:37;7.30;;;4.85;;
61702;SDS011;47622;47.726;3.298;2023-07-16T10:18:02;10.50;;;5.00;;
61702;SDS011;47622;47.726;3.298;2023-07-16T10:22:59;7.50;;;4.40;;
61702;SDS011;47622;47.726;3.298;2023-07-16T10:25:37;9.90;;;4.53;;
61702;SDS011;47622;47.726;3.298;2023-07-16T10:28:02;11.18;;;5.03;;
61702;SDS011;47622;47.726;3.298;2023-07-16T10:30:28;7.93;;;4.20;;
61702;SDS011;47622;47.726;3.298;2023-07-16T10:32:55;9.00;;;4.68;;
61702;SDS011;47622;47.726;3.298;2023-07-16T10:35:21;7.18;;;4.22;;
61702;SDS011;47622;47.726;3.298;2023-07-16T10:37:47;10.50;;;4.85;;
61702;SDS011;47622;47.726;3.298;2023-07-16T10:40:12;9.18;;;4.53;;
61702;SDS011;47622;47.726;3.298;2023-07-16T10:42:42;8.57;;;4.97;;
61702;SDS011;47622;47.726;3.298;2023-07-16T10:45:09;9.23;;;4.40;;
61702;SDS011;47622;47.726;3.298;2023-07-16T10:47:37;9.23;;;4.20;;
61702;SDS011;47622;47.726;3.298;2023-07-16T10:50:05;9.55;;;4.88;;
61702;SDS011;47622;47.726;3.298;2023-07-16T10:52:37;8.57;;;4.55;;
61702;SDS011;47622;47.726;3.298;2023-07-16T10:55:03;9.35;;;4.35;;
61702;SDS011;47622;47.726;3.298;2023-07-16T10:57:29;11.13;;;4.60;;
61702;SDS011;47622;47.726;3.298;2023-07-16T10:59:57;12.15;;;4.00;;
61702;SDS011;47622;47.726;3.298;2023-07-16T11:02:24;9.95;;;4.63;;
61702;SDS011;47622;47.726;3.298;2023-07-16T11:04:51;14.85;;;5.07;;
61702;SDS011;47622;47.726;3.298;2023-07-16T11:07:19;9.35;;;5.07;;
61702;SDS011;47622;47.726;3.298;2023-07-16T11:09:48;11.85;;;4.53;;
61702;SDS011;47622;47.726;3.298;2023-07-16T11:12:18;8.43;;;4.40;;
61702;SDS011;47622;47.726;3.298;2023-07-16T11:14:48;8.63;;;4.22;;
61702;SDS011;47622;47.726;3.298;2023-07-16T11:17:15;7.65;;;3.90;;
61702;SDS011;47622;47.726;3.298;2023-07-16T11:19:44;7.03;;;4.25;;
61702;SDS011;47622;47.726;3.298;2023-07-16T11:22:11;10.38;;;4.60;;
61702;SDS011;47622;47.726;3.298;2023-07-16T11:27:33;8.48;;;4.30;;
61702;SDS011;47622;47.726;3.298;2023-07-16T11:29:59;5.72;;;3.92;;
61702;SDS011;47622;47.726;3.298;2023-07-16T11:32:32;11.60;;;4.68;;
61702;SDS011;47622;47.726;3.298;2023-07-16T11:35:08;8.30;;;4.60;;
61702;SDS011;47622;47.726;3.298;2023-07-16T11:37:41;8.05;;;5.25;;
61702;SDS011;47622;47.726;3.298;2023-07-16T11:40:08;9.40;;;4.47;;
61702;SDS011;47622;47.726;3.298;2023-07-16T11:42:36;9.63;;;4.32;;
61702;SDS011;47622;47.726;3.298;2023-07-16T11:45:05;9.20;;;4.80;;
61702;SDS011;47622;47.726;3.298;2023-07-16T11:47:42;7.82;;;4.82;;
61702;SDS011;47622;47.726;3.298;2023-07-16T11:50:08;7.80;;;3.95;;
61702;SDS011;47622;47.726;3.298;2023-07-16T11:52:34;6.30;;;4.18;;
61702;SDS011;47622;47.726;3.298;2023-07-16T11:55:00;8.40;;;3.75;;
61702;SDS011;47622;47.726;3.298;2023-07-16T11:57:25;9.20;;;4.05;;
61702;SDS011;47622;47.726;3.298;2023-07-16T11:59:51;6.43;;;3.88;;
61702;SDS011;47622;47.726;3.298;2023-07-16T12:02:17;5.85;;;3.13;;
61702;SDS011;47622;47.726;3.298;2023-07-16T12:04:43;7.60;;;3.50;;
61702;SDS011;47622;47.726;3.298;2023-07-16T12:07:09;6.60;;;4.15;;
61702;SDS011;47622;47.726;3.298;2023-07-16T12:09:34;6.30;;;3.65;;
61702;SDS011;47622;47.726;3.298;2023-07-16T12:12:00;7.82;;;3.90;;
61702;SDS011;47622;47.726;3.298;2023-07-16T12:14:26;11.65;;;4.03;;
61702;SDS011;47622;47.726;3.298;2023-07-16T12:16:52;7.78;;;4.20;;
61702;SDS011;47622;47.726;3.298;2023-07-16T12:19:18;6.78;;;3.95;;
61702;SDS011;47622;47.726;3.298;2023-07-16T12:21:43;7.93;;;4.22;;
61702;SDS011;47622;47.726;3.298;2023-07-16T12:24:10;7.93;;;4.03;;
61702;SDS011;47622;47.726;3.298;2023-07-16T12:26:36;7.65;;;3.78;;
61702;SDS011;47622;47.726;3.298;2023-07-16T12:29:02;8.30;;;3.80;;
61702;SDS011;47622;47.726;3.298;2023-07-16T12:31:31;7.55;;;4.03;;
61702;SDS011;47622;47.726;3.298;2023-07-16T12:33:59;6.38;;;3.92;;
61702;SDS011;47622;47.726;3.298;2023-07-16T12:36:27;8.13;;;3.67;;
61702;SDS011;47622;47.726;3.298;2023-07-16T12:38:53;7.93;;;4.10;;
61702;SDS011;47622;47.726;3.298;2023-07-16T12:41:19;6.30;;;3.55;;
61702;SDS011;47622;47.726;3.298;2023-07-16T12:43:45;9.38;;;4.38;;
61702;SDS011;47622;47.726;3.298;2023-07-16T12:46:11;8.52;;;4.07;;
61702;SDS011;47622;47.726;3.298;2023-07-16T12:48:37;9.52;;;3.92;;
61702;SDS011;47622;47.726;3.298;2023-07-16T12:51:03;8.13;;;3.90;;
61702;SDS011;47622;47.726;3.298;2023-07-16T12:53:28;11.63;;;4.20;;
61702;SDS011;47622;47.726;3.298;2023-07-16T12:55:54;6.97;;;3.95;;
61702;SDS011;47622;47.726;3.298;2023-07-16T12:58:20;7.97;;;3.78;;
61702;SDS011;47622;47.726;3.298;2023-07-16T13:00:45;8.68;;;4.28;;
61702;SDS011;47622;47.726;3.298;2023-07-16T13:03:11;8.85;;;4.10;;
61702;SDS011;47622;47.726;3.298;2023-07-16T13:05:39;6.32;;;3.80;;
61702;SDS011;47622;47.726;3.298;2023-07-16T13:08:05;8.35;;;4.70;;
61702;SDS011;47622;47.726;3.298;2023-07-16T13:10:30;7.78;;;4.10;;
61702;SDS011;47622;47.726;3.298;2023-07-16T13:12:57;12.27;;;4.88;;
61702;SDS011;47622;47.726;3.298;2023-07-16T13:15:23;7.07;;;4.35;;
61702;SDS011;47622;47.726;3.298;2023-07-16T13:17:49;9.05;;;4.07;;
61702;SDS011;47622;47.726;3.298;2023-07-16T13:20:15;8.43;;;4.50;;
61702;SDS011;47622;47.726;3.298;2023-07-16T13:22:40;11.40;;;4.40;;
61702;SDS011;47622;47.726;3.298;2023-07-16T13:25:06;7.75;;;4.03;;
61702;SDS011;47622;47.726;3.298;2023-07-16T13:27:32;6.95;;;4.03;;
61702;SDS011;47622;47.726;3.298;2023-07-16T13:29:58;10.63;;;4.72;;
61702;SDS011;47622;47.726;3.298;2023-07-16T13:32:23;9.88;;;3.90;;
61702;SDS011;47622;47.726;3.298;2023-07-16T13:34:49;5.82;;;4.22;;
61702;SDS011;47622;47.726;3.298;2023-07-16T13:37:14;8.32;;;4.28;;
61702;SDS011;47622;47.726;3.298;2023-07-16T13:39:40;9.55;;;4.47;;
61702;SDS011;47622;47.726;3.298;2023-07-16T13:42:06;8.43;;;4.05;;
61702;SDS011;47622;47.726;3.298;2023-07-16T13:44:35;8.00;;;4.07;;
61702;SDS011;47622;47.726;3.298;2023-07-16T13:47:00;6.70;;;3.88;;
61702;SDS011;47622;47.726;3.298;2023-07-16T13:49:26;10.93;;;4.57;;
61702;SDS011;47622;47.726;3.298;2023-07-16T13:51:52;8.75;;;4.32;;
61702;SDS011;47622;47.726;3.298;2023-07-16T13:54:17;9.60;;;4.20;;
61702;SDS011;47622;47.726;3.298;2023-07-16T13:56:44;5.88;;;3.83;;
61702;SDS011;47622;47.726;3.298;2023-07-16T13:59:09;9.68;;;4.60;;
61702;SDS011;47622;47.726;3.298;2023-07-16T14:01:39;6.57;;;3.90;;
61702;SDS011;47622;47.726;3.298;2023-07-16T14:04:05;9.90;;;4.18;;
61702;SDS011;47622;47.726;3.298;2023-07-16T14:06:31;10.93;;;3.92;;
61702;SDS011;47622;47.726;3.298;2023-07-16T14:08:57;7.78;;;4.55;;
61702;SDS011;47622;47.726;3.298;2023-07-16T14:11:23;5.30;;;3.70;;
61702;SDS011;47622;47.726;3.298;2023-07-16T14:13:49;9.63;;;4.03;;
61702;SDS011;47622;47.726;3.298;2023-07-16T14:16:19;6.50;;;4.20;;
61702;SDS011;47622;47.726;3.298;2023-07-16T14:18:49;8.65;;;3.95;;
61702;SDS011;47622;47.726;3.298;2023-07-16T14:21:17;8.38;;;4.15;;
61702;SDS011;47622;47.726;3.298;2023-07-16T14:23:42;8.07;;;3.83;;
61702;SDS011;47622;47.726;3.298;2023-07-16T14:26:08;8.35;;;3.63;;
61702;SDS011;47622;47.726;3.298;2023-07-16T14:28:34;8.43;;;4.13;;
61702;SDS011;47622;47.726;3.298;2023-07-16T14:30:59;5.68;;;3.40;;
61702;SDS011;47622;47.726;3.298;2023-07-16T14:33:25;9.82;;;3.65;;
61702;SDS011;47622;47.726;3.298;2023-07-16T14:35:53;6.88;;;3.25;;
61702;SDS011;47622;47.726;3.298;2023-07-16T14:38:19;5.80;;;3.13;;
61702;SDS011;47622;47.726;3.298;2023-07-16T14:40:45;10.90;;;3.30;;
61702;SDS011;47622;47.726;3.298;2023-07-16T14:43:11;6.82;;;3.63;;
61702;SDS011;47622;47.726;3.298;2023-07-16T14:45:39;7.10;;;3.28;;
61702;SDS011;47622;47.726;3.298;2023-07-16T14:48:05;6.78;;;3.67;;
61702;SDS011;47622;47.726;3.298;2023-07-16T14:50:31;7.15;;;3.40;;
61702;SDS011;47622;47.726;3.298;2023-07-16T14:52:56;8.20;;;3.60;;